createdAt,value
2023-01-26T00:01:16.771Z,3.50
2023-01-26T00:04:05.688Z,3.40
2023-01-26T00:06:54.790Z,3.50
2023-01-26T00:09:44.891Z,3.50
2023-01-26T00:12:33.472Z,3.50
2023-01-26T00:15:22.244Z,3.60
2023-01-26T00:18:11.030Z,3.50
2023-01-26T00:21:00.339Z,3.60
2023-01-26T00:23:50.244Z,3.50
2023-01-26T00:26:40.267Z,3.60
2023-01-26T00:29:29.068Z,3.60
2023-01-26T00:32:17.648Z,3.50
2023-01-26T00:35:07.581Z,3.40
2023-01-26T00:37:58.173Z,3.50
2023-01-26T00:40:46.827Z,3.50
2023-01-26T00:43:37.215Z,3.40
2023-01-26T00:46:26.041Z,3.40
2023-01-26T00:49:14.709Z,3.40
2023-01-26T00:52:03.911Z,3.40
2023-01-26T00:54:52.833Z,3.40
2023-01-26T00:57:41.656Z,3.40
2023-01-26T01:00:32.956Z,3.50
2023-01-26T01:03:21.599Z,3.40
2023-01-26T01:06:10.347Z,3.30
2023-01-26T01:08:58.954Z,3.30
2023-01-26T01:11:47.662Z,3.30
2023-01-26T01:14:39.776Z,3.40
2023-01-26T01:17:30.154Z,3.30
2023-01-26T01:20:19.211Z,3.40
2023-01-26T01:23:12.164Z,3.40
2023-01-26T01:26:02.008Z,3.50
2023-01-26T01:28:54.273Z,3.60
2023-01-26T01:31:43.427Z,3.50
2023-01-26T01:34:33.497Z,3.50
2023-01-26T01:37:22.121Z,3.40
2023-01-26T01:40:14.283Z,3.40
2023-01-26T01:43:03.292Z,3.50
2023-01-26T01:45:52.690Z,3.50
2023-01-26T01:48:50.430Z,3.40
2023-01-26T01:51:44.818Z,3.60
2023-01-26T01:54:37.826Z,3.70
2023-01-26T01:57:30.220Z,3.70
2023-01-26T02:00:21.098Z,3.60
2023-01-26T02:03:15.233Z,3.40
2023-01-26T02:06:08.978Z,3.30
2023-01-26T02:09:04.041Z,3.40
2023-01-26T02:11:54.720Z,3.40
2023-01-26T02:14:43.837Z,3.40
2023-01-26T02:17:32.617Z,3.50
2023-01-26T02:20:30.822Z,3.50
2023-01-26T02:23:30.072Z,3.50
2023-01-26T02:26:23.335Z,3.40
2023-01-26T02:29:13.443Z,3.40
2023-01-26T02:32:05.194Z,3.40
2023-01-26T02:34:58.297Z,3.40
2023-01-26T02:37:46.934Z,3.50
2023-01-26T02:40:41.736Z,3.40
2023-01-26T02:43:31.824Z,3.50
2023-01-26T02:46:20.573Z,3.50
2023-01-26T02:49:26.812Z,3.50
2023-01-26T02:52:15.755Z,3.50
2023-01-26T02:55:25.121Z,3.50
2023-01-26T02:58:14.421Z,3.50
2023-01-26T03:01:04.915Z,3.50
2023-01-26T03:03:53.603Z,3.60
2023-01-26T03:06:44.613Z,3.60
2023-01-26T03:09:33.731Z,3.60
2023-01-26T03:12:22.889Z,3.60
2023-01-26T03:15:30.129Z,3.50
2023-01-26T03:18:40.294Z,3.50
2023-01-26T03:21:46.466Z,3.40
2023-01-26T03:24:52.939Z,3.50
2023-01-26T03:27:45.338Z,3.40
2023-01-26T03:30:34.895Z,3.40
2023-01-26T03:33:30.147Z,3.40
2023-01-26T03:36:22.766Z,3.40
2023-01-26T03:39:49.860Z,3.50
2023-01-26T03:42:56.693Z,3.50
2023-01-26T03:46:02.842Z,3.50
2023-01-26T03:49:12.374Z,3.50
2023-01-26T03:52:18.942Z,3.50
2023-01-26T03:55:27.422Z,3.50
2023-01-26T03:58:16.037Z,3.50
2023-01-26T04:01:07.010Z,3.50
2023-01-26T04:04:15.690Z,3.50
2023-01-26T04:07:22.802Z,3.50
2023-01-26T04:10:16.214Z,3.50
2023-01-26T04:13:22.712Z,3.50
2023-01-26T04:16:38.102Z,3.50
2023-01-26T04:19:46.419Z,3.60
2023-01-26T04:22:43.619Z,3.70
2023-01-26T04:25:32.501Z,3.70
2023-01-26T04:28:21.116Z,3.50
2023-01-26T04:31:10.418Z,3.50
2023-01-26T04:34:00.959Z,3.60
2023-01-26T04:36:51.751Z,3.50
2023-01-26T04:39:42.175Z,3.60
2023-01-26T04:42:33.471Z,3.50
2023-01-26T04:45:23.556Z,3.50
2023-01-26T04:48:12.267Z,3.50
2023-01-26T04:51:03.063Z,3.50
2023-01-26T04:53:53.596Z,3.70
2023-01-26T04:56:43.731Z,3.60
2023-01-26T04:59:32.711Z,3.60
2023-01-26T05:02:23.080Z,3.60
2023-01-26T05:05:12.076Z,3.70
2023-01-26T05:08:01.244Z,3.60
2023-01-26T05:10:53.532Z,3.70
2023-01-26T05:13:47.393Z,3.60
2023-01-26T05:16:38.650Z,3.60
2023-01-26T05:19:47.336Z,3.70
2023-01-26T05:22:35.931Z,3.80
2023-01-26T05:25:43.692Z,3.80
2023-01-26T05:28:37.010Z,3.80
2023-01-26T05:31:25.889Z,3.80
2023-01-26T05:34:15.471Z,3.80
2023-01-26T05:37:04.707Z,3.60
2023-01-26T05:39:54.688Z,3.60
2023-01-26T05:42:47.895Z,3.70
2023-01-26T05:45:45.071Z,3.80
2023-01-26T05:48:35.288Z,3.70
2023-01-26T05:51:27.768Z,3.60
2023-01-26T05:54:17.629Z,3.80
2023-01-26T05:57:06.379Z,3.90
2023-01-26T05:59:58.663Z,3.80
2023-01-26T06:02:48.977Z,3.70
2023-01-26T06:05:39.915Z,3.70
2023-01-26T06:08:44.016Z,3.90
2023-01-26T06:11:52.842Z,3.90
2023-01-26T06:14:49.410Z,3.80
2023-01-26T06:17:38.362Z,3.80
2023-01-26T06:20:33.770Z,3.70
2023-01-26T06:23:23.653Z,3.70
2023-01-26T06:26:13.344Z,3.70
2023-01-26T06:29:03.353Z,3.80
2023-01-26T06:31:55.122Z,3.80
2023-01-26T06:34:48.040Z,3.60
2023-01-26T06:37:38.235Z,3.60
2023-01-26T06:40:26.977Z,3.50
2023-01-26T06:43:16.103Z,3.50
2023-01-26T06:46:05.983Z,3.60
2023-01-26T06:48:55.822Z,3.60
2023-01-26T06:51:57.367Z,3.70
2023-01-26T06:55:01.566Z,3.70
2023-01-26T06:58:25.499Z,3.60
2023-01-26T07:01:42.862Z,3.60
2023-01-26T07:04:32.245Z,3.50
2023-01-26T07:07:21.056Z,3.40
2023-01-26T07:10:12.371Z,3.40
2023-01-26T07:13:01.382Z,3.40
2023-01-26T07:15:50.054Z,3.50
2023-01-26T07:18:39.079Z,3.50
2023-01-26T07:21:27.899Z,3.50
2023-01-26T07:24:17.179Z,3.50
2023-01-26T07:27:07.626Z,3.50
2023-01-26T07:29:56.247Z,3.50
2023-01-26T07:32:44.936Z,3.40
2023-01-26T07:35:33.650Z,3.40
2023-01-26T07:38:22.909Z,3.40
2023-01-26T07:41:14.160Z,3.40
2023-01-26T07:44:04.847Z,3.50
2023-01-26T07:46:54.635Z,3.40
2023-01-26T07:49:43.416Z,3.40
2023-01-26T07:52:32.382Z,3.40
2023-01-26T07:55:21.579Z,3.60
2023-01-26T07:58:10.185Z,3.70
2023-01-26T08:01:06.307Z,3.60
2023-01-26T08:03:55.131Z,3.50
2023-01-26T08:06:47.754Z,3.50
2023-01-26T08:09:36.472Z,3.30
2023-01-26T08:12:25.457Z,3.20
2023-01-26T08:15:14.559Z,3.30
2023-01-26T08:18:08.315Z,3.20
2023-01-26T08:20:57.372Z,3.20
2023-01-26T08:23:50.044Z,3.30
2023-01-26T08:26:38.787Z,3.60
2023-01-26T08:29:27.434Z,3.60
2023-01-26T08:32:16.113Z,3.50
2023-01-26T08:35:06.844Z,3.50
2023-01-26T08:37:55.490Z,3.50
2023-01-26T08:40:44.208Z,3.50
2023-01-26T08:43:33.111Z,3.60
2023-01-26T08:46:22.194Z,3.70
2023-01-26T08:49:11.176Z,3.70
2023-01-26T08:52:01.330Z,3.60
2023-01-26T08:54:50.140Z,3.60
2023-01-26T08:57:38.878Z,3.60
2023-01-26T09:00:30.524Z,3.60
2023-01-26T09:03:19.494Z,3.70
2023-01-26T09:06:10.543Z,3.90
2023-01-26T09:09:01.029Z,3.80
2023-01-26T09:11:49.677Z,3.80
2023-01-26T09:14:38.465Z,4.00
2023-01-26T09:17:27.154Z,3.80
2023-01-26T09:20:16.200Z,4.00
2023-01-26T09:23:04.916Z,4.00
2023-01-26T09:25:55.881Z,3.90
2023-01-26T09:28:44.534Z,3.90
2023-01-26T09:31:33.544Z,3.80
2023-01-26T09:34:22.320Z,3.80
2023-01-26T09:37:11.097Z,3.80
2023-01-26T09:39:59.863Z,3.80
2023-01-26T09:43:02.757Z,3.70
2023-01-26T09:46:02.277Z,3.80
2023-01-26T09:49:00.830Z,3.70
2023-01-26T09:51:57.637Z,3.80
2023-01-26T09:54:51.477Z,3.80
2023-01-26T09:57:48.384Z,3.80
2023-01-26T10:00:45.133Z,3.90
2023-01-26T10:03:42.588Z,4.00
2023-01-26T10:06:33.448Z,3.90
2023-01-26T10:09:33.400Z,3.90
2023-01-26T10:12:25.668Z,3.70
2023-01-26T10:15:27.320Z,3.70
2023-01-26T10:18:22.966Z,3.90
2023-01-26T10:21:13.202Z,3.90
2023-01-26T10:24:03.418Z,3.80
2023-01-26T10:26:57.819Z,3.70
2023-01-26T10:29:46.698Z,3.70
2023-01-26T10:32:37.618Z,3.80
2023-01-26T10:35:28.253Z,3.90
2023-01-26T10:38:43.436Z,4.00
2023-01-26T10:41:32.257Z,4.00
2023-01-26T10:44:27.376Z,4.10
2023-01-26T10:47:17.986Z,4.00
2023-01-26T10:50:22.280Z,4.00
2023-01-26T10:53:17.430Z,4.00
2023-01-26T10:56:08.917Z,4.00
2023-01-26T10:59:00.936Z,4.00
2023-01-26T11:01:54.801Z,3.90
2023-01-26T11:05:02.326Z,4.00
2023-01-26T11:07:55.289Z,3.90
2023-01-26T11:10:57.430Z,4.00
2023-01-26T11:13:46.129Z,4.00
2023-01-26T11:16:35.120Z,4.00
2023-01-26T11:19:43.801Z,3.90
2023-01-26T11:22:37.946Z,3.90
2023-01-26T11:25:30.190Z,3.80
2023-01-26T11:28:37.566Z,4.00
2023-01-26T11:31:39.587Z,3.90
2023-01-26T11:34:38.865Z,3.90
2023-01-26T11:37:42.240Z,3.90
2023-01-26T11:40:39.580Z,4.00
2023-01-26T11:43:49.817Z,3.90
2023-01-26T11:46:53.270Z,3.90
2023-01-26T11:50:05.368Z,4.00
2023-01-26T11:53:08.365Z,3.80
2023-01-26T11:56:11.290Z,3.80
2023-01-26T11:59:05.485Z,3.90
2023-01-26T12:02:01.120Z,4.00
2023-01-26T12:04:55.833Z,3.90
2023-01-26T12:07:54.680Z,3.90
2023-01-26T12:10:49.581Z,3.90
2023-01-26T12:13:42.750Z,3.80
2023-01-26T12:16:42.281Z,3.90
2023-01-26T12:19:41.494Z,4.00
2023-01-26T12:22:34.448Z,3.90
2023-01-26T12:25:31.795Z,4.00
2023-01-26T12:28:24.168Z,4.00
2023-01-26T12:31:19.869Z,4.00
2023-01-26T12:34:14.030Z,4.00
2023-01-26T12:37:22.242Z,3.90
2023-01-26T12:40:27.135Z,3.80
2023-01-26T12:43:27.819Z,4.00
2023-01-26T12:46:17.785Z,4.00
2023-01-26T12:49:11.634Z,4.00
2023-01-26T12:52:08.894Z,4.10
2023-01-26T12:55:03.468Z,4.00
2023-01-26T12:57:55.929Z,3.90
2023-01-26T13:00:54.374Z,3.80
2023-01-26T13:03:46.312Z,3.90
2023-01-26T13:06:35.248Z,3.90
2023-01-26T13:09:26.690Z,4.00
2023-01-26T13:12:46.148Z,3.90
2023-01-26T13:15:34.898Z,3.80
2023-01-26T13:18:50.759Z,3.80
2023-01-26T13:21:48.515Z,3.90
2023-01-26T13:24:49.669Z,3.80
2023-01-26T13:27:47.349Z,3.80
2023-01-26T13:30:46.819Z,3.80
2023-01-26T13:33:35.810Z,3.80
2023-01-26T13:36:25.218Z,3.90
2023-01-26T13:39:20.253Z,3.80
2023-01-26T13:42:21.375Z,3.80
2023-01-26T13:45:20.098Z,3.90
2023-01-26T13:48:17.237Z,4.00
2023-01-26T13:51:07.247Z,3.90
2023-01-26T13:54:03.533Z,3.80
2023-01-26T13:57:03.395Z,3.80
2023-01-26T13:59:55.474Z,3.70
2023-01-26T14:02:50.563Z,3.80
2023-01-26T14:05:39.414Z,3.70
2023-01-26T14:08:30.990Z,3.80
2023-01-26T14:11:23.799Z,3.70
2023-01-26T14:14:24.584Z,3.70
2023-01-26T14:17:30.078Z,3.80
2023-01-26T14:20:27.167Z,3.90
2023-01-26T14:23:18.825Z,3.80
2023-01-26T14:26:13.832Z,3.80
2023-01-26T14:29:03.552Z,3.80
2023-01-26T14:31:53.844Z,3.70
2023-01-26T14:34:53.473Z,3.60
2023-01-26T14:37:42.065Z,3.80
2023-01-26T14:40:33.946Z,3.70
2023-01-26T14:43:23.539Z,3.80
2023-01-26T14:46:18.369Z,3.70
2023-01-26T14:49:13.377Z,3.70
2023-01-26T14:52:04.049Z,3.80
2023-01-26T14:54:54.609Z,3.60
2023-01-26T14:57:43.300Z,3.50
2023-01-26T15:00:35.411Z,3.60
2023-01-26T15:03:32.361Z,3.70
2023-01-26T15:06:23.939Z,3.70
2023-01-26T15:09:23.548Z,3.60
2023-01-26T15:12:18.494Z,3.80
2023-01-26T15:15:14.965Z,3.70
2023-01-26T15:18:06.583Z,3.70
2023-01-26T15:21:01.562Z,3.80
2023-01-26T15:23:52.301Z,4.10
2023-01-26T15:26:44.934Z,4.00
2023-01-26T15:29:34.917Z,3.90
2023-01-26T15:32:32.501Z,3.90
2023-01-26T15:35:24.351Z,3.90
2023-01-26T15:38:14.473Z,3.80
2023-01-26T15:41:03.583Z,3.60
2023-01-26T15:43:53.814Z,3.60
2023-01-26T15:46:42.563Z,3.60
2023-01-26T15:49:32.464Z,3.60
2023-01-26T15:52:23.452Z,3.70
2023-01-26T15:55:22.138Z,3.70
2023-01-26T15:58:14.420Z,3.70
2023-01-26T16:01:04.714Z,3.70
2023-01-26T16:03:53.717Z,3.80
2023-01-26T16:06:42.872Z,3.90
2023-01-26T16:09:31.838Z,3.70
2023-01-26T16:12:36.239Z,3.80
2023-01-26T16:15:33.885Z,3.70
2023-01-26T16:18:23.885Z,3.60
2023-01-26T16:21:19.646Z,3.70
2023-01-26T16:24:09.085Z,3.60
2023-01-26T16:26:57.697Z,3.60
2023-01-26T16:29:46.382Z,3.50
2023-01-26T16:32:35.026Z,3.50
2023-01-26T16:35:30.280Z,3.50
2023-01-26T16:38:18.932Z,3.60
2023-01-26T16:41:13.623Z,3.60
2023-01-26T16:44:03.677Z,3.70
2023-01-26T16:46:52.272Z,3.80
2023-01-26T16:49:40.934Z,3.80
2023-01-26T16:52:31.911Z,3.80
2023-01-26T16:55:21.443Z,3.60
2023-01-26T16:58:10.212Z,3.60
2023-01-26T17:00:59.026Z,3.70
2023-01-26T17:03:48.300Z,3.50
2023-01-26T17:06:36.922Z,3.40
2023-01-26T17:09:26.993Z,3.30
2023-01-26T17:12:15.741Z,3.50
2023-01-26T17:15:05.287Z,3.60
2023-01-26T17:17:53.997Z,3.70
2023-01-26T17:20:42.716Z,3.70
2023-01-26T17:23:32.448Z,3.70
2023-01-26T17:26:23.134Z,3.60
2023-01-26T17:29:13.479Z,3.50
2023-01-26T17:32:02.528Z,3.40
2023-01-26T17:34:51.201Z,3.30
2023-01-26T17:37:40.496Z,3.20
2023-01-26T17:40:29.515Z,3.20
2023-01-26T17:43:21.863Z,3.20
2023-01-26T17:46:13.043Z,3.20
2023-01-26T17:49:01.960Z,3.30
2023-01-26T17:51:50.875Z,3.30
2023-01-26T17:54:39.999Z,3.30
2023-01-26T17:57:28.682Z,3.10
2023-01-26T18:00:20.491Z,3.50
2023-01-26T18:03:11.178Z,3.40
2023-01-26T18:06:00.159Z,3.30
2023-01-26T18:08:49.209Z,3.20
2023-01-26T18:11:37.979Z,3.10
2023-01-26T18:14:26.761Z,3.10
2023-01-26T18:17:17.015Z,3.10
2023-01-26T18:20:06.555Z,3.10
2023-01-26T18:22:55.288Z,3.20
2023-01-26T18:25:44.533Z,3.10
2023-01-26T18:28:33.678Z,3.20
2023-01-26T18:31:24.456Z,3.20
2023-01-26T18:34:14.650Z,3.30
2023-01-26T18:37:03.561Z,3.40
2023-01-26T18:39:52.339Z,3.30
2023-01-26T18:42:41.125Z,3.30
2023-01-26T18:45:30.343Z,3.20
2023-01-26T18:48:19.150Z,3.20
2023-01-26T18:51:13.243Z,3.20
2023-01-26T18:54:04.017Z,3.30
2023-01-26T18:56:52.810Z,3.10
2023-01-26T18:59:41.812Z,3.10
2023-01-26T19:02:33.758Z,3.10
2023-01-26T19:05:23.127Z,3.20
2023-01-26T19:08:14.463Z,3.30
2023-01-26T19:11:06.295Z,3.30
2023-01-26T19:13:55.186Z,3.30
2023-01-26T19:16:47.718Z,3.30
2023-01-26T19:19:36.438Z,3.30
2023-01-26T19:22:25.177Z,3.30
2023-01-26T19:25:15.219Z,3.40
2023-01-26T19:28:03.993Z,3.40
2023-01-26T19:30:52.736Z,3.30
2023-01-26T19:33:41.708Z,3.30
2023-01-26T19:36:33.327Z,3.40
2023-01-26T19:39:21.958Z,3.30
2023-01-26T19:42:11.972Z,3.20
2023-01-26T19:45:00.814Z,3.30
2023-01-26T19:47:49.506Z,3.30
2023-01-26T19:50:38.235Z,3.20
2023-01-26T19:53:27.069Z,3.30
2023-01-26T19:56:17.628Z,3.10
2023-01-26T19:59:10.984Z,3.20
2023-01-26T20:02:00.095Z,3.10
2023-01-26T20:04:48.779Z,3.10
2023-01-26T20:07:38.426Z,3.30
2023-01-26T20:10:27.200Z,3.10
2023-01-26T20:13:15.974Z,3.10
2023-01-26T20:16:08.290Z,3.20
2023-01-26T20:18:57.296Z,3.20
2023-01-26T20:21:46.057Z,3.20
2023-01-26T20:24:34.735Z,3.20
2023-01-26T20:27:23.569Z,3.30
2023-01-26T20:30:13.437Z,3.30
2023-01-26T20:33:03.878Z,3.10
2023-01-26T20:35:52.492Z,3.10
2023-01-26T20:38:41.428Z,3.20
2023-01-26T20:41:32.274Z,3.30
2023-01-26T20:44:21.482Z,3.30
2023-01-26T20:47:10.244Z,3.30
2023-01-26T20:50:00.437Z,3.40
2023-01-26T20:52:49.119Z,3.40
2023-01-26T20:55:37.845Z,3.40
2023-01-26T20:58:26.893Z,3.40
2023-01-26T21:01:18.036Z,3.30
2023-01-26T21:04:07.052Z,3.30
2023-01-26T21:06:57.310Z,3.20
2023-01-26T21:09:45.948Z,3.20
2023-01-26T21:12:37.268Z,3.20
2023-01-26T21:15:25.908Z,3.40
2023-01-26T21:18:14.607Z,3.40
2023-01-26T21:21:06.012Z,3.20
2023-01-26T21:23:56.470Z,3.30
2023-01-26T21:26:45.291Z,3.30
2023-01-26T21:29:34.037Z,3.40
2023-01-26T21:32:22.684Z,3.40
2023-01-26T21:35:13.774Z,3.30
2023-01-26T21:38:02.447Z,3.20
2023-01-26T21:40:59.503Z,3.20
2023-01-26T21:43:48.518Z,3.20
2023-01-26T21:46:37.678Z,3.30
2023-01-26T21:49:28.917Z,3.30
2023-01-26T21:52:34.878Z,3.40
2023-01-26T21:55:23.602Z,3.50
2023-01-26T21:58:42.403Z,3.40
2023-01-26T22:01:32.910Z,3.50
2023-01-26T22:04:23.691Z,3.50
2023-01-26T22:07:12.461Z,3.40
2023-01-26T22:10:01.374Z,3.50
2023-01-26T22:12:50.255Z,3.50
2023-01-26T22:15:40.401Z,3.50
2023-01-26T22:18:30.139Z,3.40
2023-01-26T22:21:19.853Z,3.50
2023-01-26T22:24:11.749Z,3.40
2023-01-26T22:27:00.988Z,3.30
2023-01-26T22:29:49.651Z,3.20
2023-01-26T22:32:39.712Z,3.30
2023-01-26T22:35:30.256Z,3.20
2023-01-26T22:38:19.012Z,3.20
2023-01-26T22:41:08.482Z,3.30
2023-01-26T22:44:00.194Z,3.30
2023-01-26T22:46:48.853Z,3.30
2023-01-26T22:49:39.128Z,3.30
2023-01-26T22:52:27.904Z,3.40
2023-01-26T22:55:17.169Z,3.40
2023-01-26T22:58:05.821Z,3.50
2023-01-26T23:00:54.538Z,3.50
2023-01-26T23:03:44.822Z,3.40
2023-01-26T23:06:35.058Z,3.50
2023-01-26T23:09:23.734Z,3.40
2023-01-26T23:12:20.786Z,3.40
2023-01-26T23:15:10.371Z,3.30
2023-01-26T23:17:59.089Z,3.40
2023-01-26T23:20:48.247Z,3.50
2023-01-26T23:23:40.156Z,3.60
2023-01-26T23:26:29.102Z,3.50
2023-01-26T23:29:17.819Z,3.50
2023-01-26T23:32:07.193Z,3.40
2023-01-26T23:34:55.824Z,3.50
2023-01-26T23:37:44.511Z,3.60
2023-01-26T23:40:35.648Z,3.50
2023-01-26T23:43:24.867Z,3.40
2023-01-26T23:46:14.374Z,3.40
2023-01-26T23:49:02.980Z,3.30
2023-01-26T23:51:51.643Z,3.30
2023-01-26T23:54:40.233Z,3.20
2023-01-26T23:57:30.412Z,3.30
